Magic Sun — D54895U — position and weather

sailwx.info

Track history (hours):
 
Tides and Currents Weather Stations Pressure Air Temp Water Temp Dewpoint Dewpoint Depression Visibility Wind Speed Wind Dir Waves Ship Positions

Magic Sun

Last reported at 2015-May-17 12:33 UTC. Time now 2015-May-27 13:53 UTC.
Position N 49°29' E 000°05'.
Warning: this ship's position is 10 days out of date.

Length 10 m.

Type: Sailing vessel. MMSI: 227018810.

Date/timePositionNaut miles runAvg speedWind from/ knotsBaromVisibWave heightAir tempDewpointWater temp
2015-May-17 12:33N 49°29' E 000°05'2 2.0
2015-May-17 11:34N 49°30' E 000°03'4 3.7
2015-May-17 10:33N 49°33' W 000°01'4 4.0
2015-May-17 09:32N 49°37' W 000°04'77 4.7
2015-May-16 17:09N 50°44' W 001°05'4 6.5
2015-May-16 16:33N 50°45' W 001°10'2 0.4
2015-May-16 10:25N 50°47' W 001°13'4 4.7
2015-May-16 09:33N 50°48' W 001°07'0 0.4
2015-May-16 08:33N 50°48' W 001°07'0 0.0
2015-May-16 07:33N 50°48' W 001°07'0 0.0
2015-May-16 06:33N 50°48' W 001°07'0 0.0
2015-May-16 05:33N 50°48' W 001°07'0 0.0
2015-May-16 04:33N 50°48' W 001°07'0 0.0
2015-May-16 03:33N 50°48' W 001°07'0 0.0
2015-May-16 02:33N 50°48' W 001°07'0 0.0
2015-May-16 01:33N 50°48' W 001°07'0 0.0
2015-May-16 00:33N 50°48' W 001°07'0 0.0
2015-May-15 23:33N 50°48' W 001°07'0 0.0
2015-May-15 22:33N 50°48' W 001°07'0 0.0
2015-May-15 21:33N 50°48' W 001°07'0 0.0
2015-May-15 20:33N 50°48' W 001°07'2 2.0
2015-May-15 19:33N 50°46' W 001°05'6 6.1
2015-May-15 18:33N 50°44' W 000°56'6 5.1
2015-May-15 17:25N 50°41' W 000°48'4 1.7
2015-May-15 15:10N 50°43' W 000°43'3 4.1
2015-May-15 14:27N 50°43' W 000°39'73 2.4
2015-May-14 08:29N 49°35' E 000°03'4 4.3
2015-May-14 07:33N 49°31' E 000°03'2 2.1
2015-May-14 06:33N 49°29' E 000°06'0 0.0
2015-May-14 05:33N 49°29' E 000°06'  
2015-May-08 16:32N 49°29' E 000°06'0 0.0
2015-May-08 15:32N 49°29' E 000°06'0 0.0
2015-May-08 14:32N 49°29' E 000°06'0 0.0
2015-May-08 13:32N 49°29' E 000°06'0 0.0
2015-May-08 12:32N 49°29' E 000°06'0 0.0
2015-May-08 11:32N 49°29' E 000°06'0 0.0
2015-May-08 10:32N 49°29' E 000°06'0 0.0
2015-May-08 09:29N 49°29' E 000°06'  
Track history (hours):
 
Tides and Currents Weather Stations Pressure Air Temp Water Temp Dewpoint Dewpoint Depression Visibility Wind Speed Wind Dir Waves Ship Positions

Magic Sun

Last reported at 2015-May-17 12:33 UTC. Time now 2015-May-27 13:53 UTC.
Position N 49°29' E 000°05'.
Warning: this ship's position is 10 days out of date.

Length 10 m.

Type: Sailing vessel. MMSI: 227018810.

Date/timePositionNaut miles runAvg speedWind from/ knotsBaromVisibWave heightAir tempDewpointWater temp
2015-May-17 12:33N 49°29' E 000°05'2 2.0
2015-May-17 11:34N 49°30' E 000°03'4 3.7
2015-May-17 10:33N 49°33' W 000°01'4 4.0
2015-May-17 09:32N 49°37' W 000°04'77 4.7
2015-May-16 17:09N 50°44' W 001°05'4 6.5
2015-May-16 16:33N 50°45' W 001°10'2 0.4
2015-May-16 10:25N 50°47' W 001°13'4 4.7
2015-May-16 09:33N 50°48' W 001°07'0 0.4
2015-May-16 08:33N 50°48' W 001°07'0 0.0
2015-May-16 07:33N 50°48' W 001°07'0 0.0
2015-May-16 06:33N 50°48' W 001°07'0 0.0
2015-May-16 05:33N 50°48' W 001°07'0 0.0
2015-May-16 04:33N 50°48' W 001°07'0 0.0
2015-May-16 03:33N 50°48' W 001°07'0 0.0
2015-May-16 02:33N 50°48' W 001°07'0 0.0
2015-May-16 01:33N 50°48' W 001°07'0 0.0
2015-May-16 00:33N 50°48' W 001°07'0 0.0
2015-May-15 23:33N 50°48' W 001°07'0 0.0
2015-May-15 22:33N 50°48' W 001°07'0 0.0
2015-May-15 21:33N 50°48' W 001°07'0 0.0
2015-May-15 20:33N 50°48' W 001°07'2 2.0
2015-May-15 19:33N 50°46' W 001°05'6 6.1
2015-May-15 18:33N 50°44' W 000°56'6 5.1
2015-May-15 17:25N 50°41' W 000°48'4 1.7
2015-May-15 15:10N 50°43' W 000°43'3 4.1
2015-May-15 14:27N 50°43' W 000°39'73 2.4
2015-May-14 08:29N 49°35' E 000°03'4 4.3
2015-May-14 07:33N 49°31' E 000°03'2 2.1
2015-May-14 06:33N 49°29' E 000°06'0 0.0
2015-May-14 05:33N 49°29' E 000°06'  
2015-May-08 16:32N 49°29' E 000°06'0 0.0
2015-May-08 15:32N 49°29' E 000°06'0 0.0
2015-May-08 14:32N 49°29' E 000°06'0 0.0
2015-May-08 13:32N 49°29' E 000°06'0 0.0
2015-May-08 12:32N 49°29' E 000°06'0 0.0
2015-May-08 11:32N 49°29' E 000°06'0 0.0
2015-May-08 10:32N 49°29' E 000°06'0 0.0
2015-May-08 09:29N 49°29' E 000°06'  

Dump ship's entire track history